Decoded Metar for LFOJ (ORLEANS in FRANCE) (IATA:ORE) | Meteo·Mobile Aviation Weather
aviador You're here:

LFOJ Decoded Metar

ORLEANS in FRANCE
Report Time2019-10-21 07:00:00
UTC Time2019-10-21 07:33:44
Flight Rules vfr VFR
Wind230° at 10 kt
W.Decomp.*RWY 25: 9.5 kt HW 3.3 kt LCW
Visibility9999 m
Phenomena:N/A
Clouds:Few 007 Hf
Scattered 047 Hf
Broken 062 Hf
Expected CloudBase > 400 ft AGL from Temp-Dew spread
Ceiling6,200 ft
Temp10°C (ISA -4)
Dew Point09°C (94% RH)
AAT6.2°C
QNH1016 hPa
Density Alt-36 ft
Elevation410 ft
Report Wrong Elevation
Raw Report
METAR LFOJ 210700Z AUTO 23010KT 9999 FEW007 SCT047 BKN062 10/09 Q1016
TEMPO BKN010=

Extra information for LFOJ:More info

Metar Taf Metar & Taf Last 4 Metars F.Rules Stats Wind Profile Meteogram Temp Stats Airport Information Weather charts Add Link Nearby VenuesMetar ALERT Operation Metar Decoded Social comments